シドニー の空港の天気 - METARとTAF

シドニー国際空港 ( YSSY / SYD ) - オーストラリア ニューサウスウェールズ州、Mascot
飛行場実況気象(Metar)
観測時間02/21 02:00 AEDT (02/20 15:00 UTC)
風向・風速西南西 3m/s
視程10km以上
天気現象
なし
気温20℃
湿度53%
気圧1016hPa
METARYSSY 201500Z 25005KT CAVOK 20/10 Q1016 NOSIG
過去の天気等 Google飛行場航空写真 Wunderground天気予報

過去48時間のMETAR

飛行場予報(TAF)
発表時間: 2/20 22:07 AEDT (2/20 11:07 UTC)
予報対象時間: 20日23時 AEDT ~ 22日5時 AEDT
風向・風速西北西 4m/s
視程10km以上
なし
21日12時 AEDT から
風向・風速東 6m/s
視程10km以上
少しの雲 雲底高度 1,220m
21日17時 AEDT から
風向・風速東北東 6m/s
視程10km以上
全天の4割程度の雲 雲底高度 1,220m
21日20時 AEDT から
風向・風速北東 5m/s
視程10km以上
全天の4割程度の雲 雲底高度 1,070m
22日1時 AEDT から
風向・風速北北東 5m/s
視程10km以上
全天の4割程度の雲 雲底高度 910m
TAF YSSY 201107Z 2012/2118 29008KT CAVOK
FM210100 09012KT 9999 FEW040
FM210600 06012KT 9999 SCT040
FM210900 05010KT 9999 SCT035
FM211400 02010KT 9999 SCT030